createdAt,value
2018-08-24T00:00:37.399Z,93731.19
2018-08-24T00:15:41.142Z,93739.86
2018-08-24T00:30:45.214Z,93741.37
2018-08-24T00:45:49.273Z,93733.52
2018-08-24T01:00:57.513Z,93727.38
2018-08-24T01:16:02.584Z,93717.30
2018-08-24T01:31:08.801Z,93723.59
2018-08-24T01:46:14.343Z,93705.58
2018-08-24T02:01:18.390Z,93701.31
2018-08-24T02:16:22.532Z,93698.06
2018-08-24T02:31:26.702Z,93691.26
2018-08-24T02:46:30.828Z,93689.47
2018-08-24T03:01:35.009Z,93692.89
2018-08-24T03:16:38.912Z,93705.66
2018-08-24T03:31:42.967Z,93703.23
2018-08-24T03:46:47.049Z,93708.61
2018-08-24T04:01:51.300Z,93708.50
2018-08-24T04:17:00.614Z,93705.22
2018-08-24T04:32:04.562Z,93702.30
2018-08-24T04:47:08.700Z,93689.08
2018-08-24T05:02:13.007Z,93689.86
2018-08-24T05:17:17.104Z,93674.01
2018-08-24T05:32:21.194Z,93669.95
2018-08-24T05:47:25.180Z,93673.31
2018-08-24T06:02:29.414Z,93668.97
2018-08-24T06:17:38.781Z,93670.45
2018-08-24T06:32:44.149Z,93683.64
2018-08-24T06:47:48.363Z,93681.11
2018-08-24T07:02:52.436Z,93680.66
2018-08-24T07:18:03.999Z,93674.06
2018-08-24T07:33:08.153Z,93672.58
2018-08-24T07:48:12.274Z,93663.67
2018-08-24T08:03:16.378Z,93653.68
2018-08-24T08:18:20.540Z,93638.37
2018-08-24T08:33:24.995Z,93645.22
2018-08-24T08:48:29.171Z,93631.00
2018-08-24T09:03:33.287Z,93615.95
2018-08-24T09:18:42.472Z,93628.55
2018-08-24T09:33:46.440Z,93615.63
2018-08-24T09:48:55.532Z,93599.33
2018-08-24T10:04:04.583Z,93584.45
2018-08-24T10:19:11.462Z,93586.91
2018-08-24T10:34:15.435Z,93561.13
2018-08-24T10:49:19.578Z,93552.77
2018-08-24T11:04:23.651Z,93530.09
2018-08-24T11:19:27.662Z,93523.50
2018-08-24T11:34:31.781Z,93519.66
2018-08-24T11:49:35.795Z,93497.97
2018-08-24T12:04:39.813Z,93484.80
2018-08-24T12:19:43.813Z,93462.62
2018-08-24T12:34:47.891Z,93445.11
2018-08-24T12:49:51.918Z,93426.28
2018-08-24T13:04:56.322Z,93427.00
2018-08-24T13:20:01.718Z,93425.05
2018-08-24T13:35:06.393Z,93418.97
2018-08-24T13:50:10.547Z,93397.30
2018-08-24T14:05:14.664Z,93380.48
2018-08-24T14:20:18.730Z,93363.73
2018-08-24T14:35:22.861Z,93362.81
2018-08-24T14:50:26.999Z,93353.24
2018-08-24T15:05:31.001Z,93341.54
2018-08-24T15:20:35.122Z,93336.89
2018-08-24T15:35:39.322Z,93331.80
2018-08-24T15:50:43.544Z,93325.41
2018-08-24T16:05:47.711Z,93333.72
2018-08-24T16:20:52.576Z,93326.73
2018-08-24T16:35:56.718Z,93342.17
2018-08-24T16:51:00.922Z,93344.94
2018-08-24T17:06:05.205Z,93346.83
2018-08-24T17:21:09.154Z,93365.02
2018-08-24T17:36:13.183Z,93382.25
2018-08-24T17:51:17.531Z,93391.00
2018-08-24T18:06:21.640Z,93413.48
2018-08-24T18:21:27.642Z,93410.19
2018-08-24T18:36:31.824Z,93414.77
2018-08-24T18:51:35.876Z,93423.63
2018-08-24T19:06:40.041Z,93432.83
2018-08-24T19:21:45.684Z,93423.53
2018-08-24T19:36:49.902Z,93409.72
2018-08-24T19:51:54.033Z,93423.45
2018-08-24T20:07:03.307Z,93417.00
2018-08-24T20:22:09.852Z,93428.88
2018-08-24T20:37:15.057Z,93429.34
2018-08-24T20:52:19.014Z,93426.94
2018-08-24T21:07:22.897Z,93437.59
2018-08-24T21:22:26.876Z,93446.20
2018-08-24T21:37:30.963Z,93454.13
2018-08-24T21:52:35.057Z,93451.52
2018-08-24T22:07:39.109Z,93446.21
2018-08-24T22:22:43.152Z,93451.40
2018-08-24T22:37:47.321Z,93434.73
2018-08-24T22:52:51.350Z,93415.28
2018-08-24T23:07:55.442Z,93419.80
2018-08-24T23:22:59.540Z,93413.98
2018-08-24T23:38:03.636Z,93418.28
2018-08-24T23:53:07.516Z,93408.89
